This is the latest recevied weather packets stored in our database for station/object K5GTX. If no packets are shown the sender has not sent any weather packets the latest 1 day(s).
| Time | Temp. | Humidity | Pressure | Rain* | Wind** | Luminosity | Snow |
|---|---|---|---|---|---|---|---|
| 1778033019 | 22.78° C | 99% | 1012.4 hPa | 0 mm | - | 0 W/m² | - |
| 1778032414 | 22.78° C | 99% | 1012.9 hPa | 0 mm | - | 0 W/m² | - |
| 1778032110 | 22.78° C | 99% | 1012.7 hPa | 0 mm | - | 0 W/m² | - |
| 1778031807 | 22.78° C | 99% | 1012.5 hPa | 0 mm | - | 0 W/m² | - |
| 1778031503 | 22.78° C | 99% | 1012.6 hPa | 0 mm | - | 0 W/m² | - |
| 1778031201 | 23.33° C | 99% | 1012.6 hPa | 0 mm | - | 0 W/m² | - |
| 1778030897 | 23.33° C | 99% | 1012.4 hPa | 0 mm | - | 0 W/m² | - |
| 1778030594 | 23.33° C | 99% | 1012.8 hPa | 0 mm | - | 0 W/m² | - |
| 1778030292 | 23.33° C | 99% | 1012.6 hPa | 0 mm | - | 0 W/m² | - |
| 1778029988 | 23.33° C | 99% | 1012.4 hPa | 0 mm | - | 0 W/m² | - |
| 1778029686 | 23.33° C | 99% | 1012.3 hPa | 0 mm | - | 0 W/m² | - |
| 1778028777 | 23.33° C | 99% | 1011.7 hPa | 0 mm | - | 1 W/m² | - |
| 1778028473 | 23.89° C | 99% | 1011.8 hPa | 0 mm | - | 0 W/m² | - |
| 1778028171 | 23.89° C | 99% | 1011.9 hPa | 0 mm | - | 1 W/m² | - |
| 1778027563 | 24.44° C | 99% | 1011.8 hPa | 0 mm | - | 4 W/m² | - |
| 1778027259 | 25° C | 99% | 1011.7 hPa | 0 mm | - | 9 W/m² | - |
| 1778026956 | 25.56° C | 99% | 1011.6 hPa | 0 mm | - | 15 W/m² | - |
| 1778026046 | 26.11° C | 99% | 1011.5 hPa | 0 mm | - | 34 W/m² | - |
| 1778025139 | 26.67° C | 99% | 1010.7 hPa | 0 mm | - | 32 W/m² | - |
| 1778022717 | 30° C | 99% | 1010.3 hPa | 0 mm | - | 73 W/m² | - |
| 1778022111 | 30° C | 99% | 1010.2 hPa | 0 mm | - | 103 W/m² | - |
| 1778021807 | 31.11° C | 99% | 1009.9 hPa | 0 mm | - | 135 W/m² | - |
| 1778020898 | 31.67° C | 99% | 1009.9 hPa | 0 mm | - | 127 W/m² | - |
| 1778019987 | 32.22° C | 99% | 1009.6 hPa | 0 mm | - | 135 W/m² | - |
| 1778019077 | 32.22° C | 99% | 1009.3 hPa | 0 mm | - | 154 W/m² | - |
* Rain latest hour (hover to see other rain measurements)
** Current wind speed in m/s (hover to see current wind gust speed)